createdAt,value
2023-08-09T00:01:57.966Z,101299.00
2023-08-09T00:04:28.945Z,101303.00
2023-08-09T00:06:57.989Z,101304.00
2023-08-09T00:09:24.675Z,101301.00
2023-08-09T00:11:51.449Z,101300.00
2023-08-09T00:14:20.539Z,101300.00
2023-08-09T00:16:47.229Z,101304.00
2023-08-09T00:19:16.001Z,101303.00
2023-08-09T00:21:43.700Z,101302.00
2023-08-09T00:24:11.645Z,101299.00
2023-08-09T00:26:38.265Z,101305.00
2023-08-09T00:29:05.233Z,101310.00
2023-08-09T00:31:32.064Z,101325.00
2023-08-09T00:33:58.783Z,101321.00
2023-08-09T00:36:30.128Z,101323.00
2023-08-09T00:38:56.802Z,101321.00
2023-08-09T00:41:23.435Z,101319.00
2023-08-09T00:43:50.147Z,101316.00
2023-08-09T00:46:16.870Z,101315.00
2023-08-09T00:48:45.761Z,101315.00
2023-08-09T00:51:12.620Z,101304.00
2023-08-09T00:53:40.197Z,101307.00
2023-08-09T00:56:09.641Z,101310.00
2023-08-09T00:58:40.800Z,101320.00
2023-08-09T01:01:07.923Z,101321.00
2023-08-09T01:03:37.150Z,101322.00
2023-08-09T01:06:07.405Z,101328.00
2023-08-09T01:08:57.323Z,101321.00
2023-08-09T01:11:49.431Z,101319.00
2023-08-09T01:14:18.874Z,101333.00
2023-08-09T01:16:47.655Z,101327.00
2023-08-09T01:19:50.738Z,101332.00
2023-08-09T01:22:24.672Z,101327.00
2023-08-09T01:24:53.934Z,101328.00
2023-08-09T01:27:20.640Z,101333.00
2023-08-09T01:29:49.656Z,101323.00
2023-08-09T01:32:19.603Z,101328.00
2023-08-09T01:34:46.197Z,101325.00
2023-08-09T01:37:25.230Z,101330.00
2023-08-09T01:39:54.855Z,101326.00
2023-08-09T01:42:22.106Z,101330.00
2023-08-09T01:44:49.029Z,101333.00
2023-08-09T01:47:17.088Z,101326.00
2023-08-09T01:49:49.547Z,101333.00
2023-08-09T01:52:18.838Z,101330.00
2023-08-09T01:54:48.063Z,101334.00
2023-08-09T01:57:19.473Z,101337.00
2023-08-09T01:59:48.349Z,101343.00
2023-08-09T02:02:14.997Z,101340.00
2023-08-09T02:04:41.708Z,101341.00
2023-08-09T02:07:10.608Z,101349.00
2023-08-09T02:09:37.300Z,101358.00
2023-08-09T02:12:04.183Z,101360.00
2023-08-09T02:14:30.836Z,101364.00
2023-08-09T02:16:57.495Z,101364.00
2023-08-09T02:19:24.103Z,101375.00
2023-08-09T02:21:51.331Z,101376.00
2023-08-09T02:24:17.986Z,101376.00
2023-08-09T02:26:47.052Z,101380.00
2023-08-09T02:29:13.704Z,101384.00
2023-08-09T02:31:41.801Z,101385.00
2023-08-09T02:34:08.431Z,101388.00
2023-08-09T02:36:37.353Z,101389.00
2023-08-09T02:39:06.326Z,101392.00
2023-08-09T02:41:35.684Z,101397.00
2023-08-09T02:44:02.412Z,101393.00
2023-08-09T02:46:29.143Z,101399.00
2023-08-09T02:48:58.279Z,101406.00
2023-08-09T02:51:25.007Z,101405.00
2023-08-09T02:54:03.427Z,101412.00
2023-08-09T02:56:33.444Z,101414.00
2023-08-09T02:59:02.392Z,101414.00
2023-08-09T03:01:31.751Z,101411.00
2023-08-09T03:04:01.255Z,101414.00
2023-08-09T03:06:28.094Z,101412.00
2023-08-09T03:08:59.482Z,101418.00
2023-08-09T03:11:26.559Z,101419.00
2023-08-09T03:13:55.494Z,101415.00
2023-08-09T03:16:25.616Z,101423.00
2023-08-09T03:18:52.314Z,101421.00
2023-08-09T03:21:19.137Z,101430.00
2023-08-09T03:23:45.745Z,101437.00
2023-08-09T03:26:12.499Z,101424.00
2023-08-09T03:28:44.118Z,101422.00
2023-08-09T03:31:15.879Z,101437.00
2023-08-09T03:33:42.568Z,101435.00
2023-08-09T03:36:14.187Z,101438.00
2023-08-09T03:38:45.780Z,101433.00
2023-08-09T03:41:12.421Z,101432.00
2023-08-09T03:43:39.094Z,101440.00
2023-08-09T03:46:08.276Z,101437.00
2023-08-09T03:48:35.311Z,101441.00
2023-08-09T03:51:02.006Z,101441.00
2023-08-09T03:53:30.848Z,101440.00
2023-08-09T03:55:57.667Z,101446.00
2023-08-09T03:58:29.528Z,101447.00
2023-08-09T04:00:56.217Z,101446.00
2023-08-09T04:03:25.515Z,101442.00
2023-08-09T04:05:54.619Z,101449.00
2023-08-09T04:08:27.283Z,101456.00
2023-08-09T04:10:56.474Z,101460.00
2023-08-09T04:13:23.330Z,101466.00
2023-08-09T04:15:52.797Z,101467.00
2023-08-09T04:18:19.469Z,101474.00
2023-08-09T04:20:49.010Z,101477.00
2023-08-09T04:23:15.753Z,101480.00
2023-08-09T04:25:42.846Z,101487.00
2023-08-09T04:28:11.655Z,101481.00
2023-08-09T04:30:39.917Z,101484.00
2023-08-09T04:33:09.082Z,101480.00
2023-08-09T04:35:36.831Z,101486.00
2023-08-09T04:38:09.841Z,101482.00
2023-08-09T04:40:37.617Z,101487.00
2023-08-09T04:43:05.185Z,101491.00
2023-08-09T04:45:35.027Z,101491.00
2023-08-09T04:48:04.595Z,101497.00
2023-08-09T04:50:34.538Z,101503.00
2023-08-09T04:53:03.643Z,101511.00
2023-08-09T04:55:30.330Z,101516.00
2023-08-09T04:57:59.209Z,101512.00
2023-08-09T05:00:25.912Z,101514.00
2023-08-09T05:02:52.595Z,101515.00
2023-08-09T05:05:21.351Z,101510.00
2023-08-09T05:07:48.002Z,101524.00
2023-08-09T05:10:15.829Z,101525.00
2023-08-09T05:12:45.064Z,101525.00
2023-08-09T05:15:12.281Z,101516.00
2023-08-09T05:17:39.085Z,101511.00
2023-08-09T05:20:08.697Z,101512.00
2023-08-09T05:22:37.899Z,101520.00
2023-08-09T05:25:05.106Z,101522.00
2023-08-09T05:27:31.774Z,101534.00
2023-08-09T05:29:58.651Z,101532.00
2023-08-09T05:32:25.365Z,101534.00
2023-08-09T05:34:52.167Z,101532.00
2023-08-09T05:37:21.235Z,101527.00
2023-08-09T05:39:48.200Z,101526.00
2023-08-09T05:42:15.075Z,101532.00
2023-08-09T05:44:41.741Z,101529.00
2023-08-09T05:47:10.269Z,101527.00
2023-08-09T05:49:41.130Z,101536.00
2023-08-09T05:52:07.846Z,101542.00
2023-08-09T05:54:34.483Z,101535.00
2023-08-09T05:57:02.627Z,101540.00
2023-08-09T05:59:29.667Z,101540.00
2023-08-09T06:01:58.823Z,101547.00
2023-08-09T06:04:26.073Z,101548.00
2023-08-09T06:06:52.809Z,101546.00
2023-08-09T06:12:06.215Z,101561.00
2023-08-09T06:14:33.794Z,101563.00
2023-08-09T06:17:00.935Z,101552.00
2023-08-09T06:19:30.177Z,101554.00
2023-08-09T06:21:57.068Z,101555.00
2023-08-09T06:24:23.816Z,101570.00
2023-08-09T06:26:52.569Z,101567.00
2023-08-09T06:29:22.106Z,101563.00
2023-08-09T06:31:53.571Z,101572.00
2023-08-09T06:34:20.267Z,101570.00
2023-08-09T06:36:46.957Z,101565.00
2023-08-09T06:39:16.125Z,101565.00
2023-08-09T06:41:42.816Z,101564.00
2023-08-09T06:44:09.516Z,101569.00
2023-08-09T06:46:36.272Z,101575.00
2023-08-09T06:49:03.042Z,101585.00
2023-08-09T06:51:29.857Z,101593.00
2023-08-09T06:53:56.568Z,101602.00
2023-08-09T06:56:26.747Z,101604.00
2023-08-09T06:58:53.502Z,101606.00
2023-08-09T07:01:25.004Z,101616.00
2023-08-09T07:03:52.145Z,101618.00
2023-08-09T07:06:19.062Z,101618.00
2023-08-09T07:08:48.260Z,101613.00
2023-08-09T07:11:17.687Z,101615.00
2023-08-09T07:13:44.473Z,101622.00
2023-08-09T07:16:13.679Z,101620.00
2023-08-09T07:18:40.514Z,101628.00
2023-08-09T07:21:08.008Z,101631.00
2023-08-09T07:23:47.203Z,101641.00
2023-08-09T07:26:23.835Z,101635.00
2023-08-09T07:28:52.518Z,101628.00
2023-08-09T07:31:21.735Z,101646.00
2023-08-09T07:33:51.110Z,101637.00
2023-08-09T07:36:20.361Z,101651.00
2023-08-09T07:38:49.410Z,101648.00
2023-08-09T07:41:16.167Z,101648.00
2023-08-09T07:43:48.867Z,101643.00
2023-08-09T07:46:15.505Z,101647.00
2023-08-09T07:48:44.756Z,101654.00
2023-08-09T07:51:13.395Z,101654.00
2023-08-09T07:53:41.473Z,101648.00
2023-08-09T07:56:08.897Z,101657.00
2023-08-09T07:58:38.063Z,101650.00
2023-08-09T08:01:05.450Z,101661.00
2023-08-09T08:03:32.885Z,101673.00
2023-08-09T08:06:02.755Z,101678.00
2023-08-09T08:08:29.476Z,101684.00
2023-08-09T08:10:56.381Z,101691.00
2023-08-09T08:13:23.475Z,101691.00
2023-08-09T08:15:53.714Z,101701.00
2023-08-09T08:20:58.574Z,101699.00
2023-08-09T08:23:25.223Z,101697.00
2023-08-09T08:25:55.345Z,101695.00
2023-08-09T08:28:22.061Z,101701.00
2023-08-09T08:30:48.978Z,101708.00
2023-08-09T08:33:16.172Z,101711.00
2023-08-09T08:35:52.045Z,101712.00
2023-08-09T08:38:26.504Z,101709.00
2023-08-09T08:40:55.566Z,101716.00
2023-08-09T08:43:24.744Z,101713.00
2023-08-09T08:45:53.001Z,101720.00
2023-08-09T08:48:21.236Z,101730.00
2023-08-09T08:50:48.772Z,101733.00
2023-08-09T08:53:15.770Z,101738.00
2023-08-09T08:55:42.840Z,101746.00
2023-08-09T08:58:10.196Z,101743.00
2023-08-09T09:00:37.700Z,101752.00
2023-08-09T09:03:04.638Z,101748.00
2023-08-09T09:05:31.452Z,101751.00
2023-08-09T09:07:58.439Z,101752.00
2023-08-09T09:10:29.012Z,101756.00
2023-08-09T09:12:59.457Z,101748.00
2023-08-09T09:15:28.061Z,101750.00
2023-08-09T09:17:55.069Z,101757.00
2023-08-09T09:20:35.059Z,101760.00
2023-08-09T09:23:04.444Z,101767.00
2023-08-09T09:25:33.434Z,101760.00
2023-08-09T09:28:00.154Z,101769.00
2023-08-09T09:30:30.963Z,101775.00
2023-08-09T09:33:00.041Z,101775.00
2023-08-09T09:35:32.203Z,101766.00
2023-08-09T09:38:00.558Z,101774.00
2023-08-09T09:40:37.420Z,101779.00
2023-08-09T09:43:05.818Z,101775.00
2023-08-09T09:45:32.970Z,101775.00
2023-08-09T09:48:05.491Z,101785.00
2023-08-09T09:50:35.495Z,101785.00
2023-08-09T09:53:04.379Z,101787.00
2023-08-09T09:55:31.977Z,101781.00
2023-08-09T09:58:01.887Z,101784.00
2023-08-09T10:00:29.229Z,101791.00
2023-08-09T10:02:59.102Z,101788.00
2023-08-09T10:05:46.906Z,101801.00
2023-08-09T10:08:16.025Z,101800.00
2023-08-09T10:10:45.316Z,101805.00
2023-08-09T10:13:16.241Z,101804.00
2023-08-09T10:15:48.554Z,101804.00
2023-08-09T10:18:21.566Z,101813.00
2023-08-09T10:20:53.387Z,101806.00
2023-08-09T10:23:24.227Z,101818.00
2023-08-09T10:25:52.248Z,101822.00
2023-08-09T10:28:20.403Z,101819.00
2023-08-09T10:30:53.361Z,101819.00
2023-08-09T10:33:25.969Z,101819.00
2023-08-09T10:35:56.477Z,101823.00
2023-08-09T10:38:48.780Z,101825.00
2023-08-09T10:41:16.166Z,101830.00
2023-08-09T10:43:42.992Z,101832.00
2023-08-09T10:46:25.098Z,101835.00
2023-08-09T10:48:53.300Z,101837.00
2023-08-09T10:51:24.624Z,101842.00
2023-08-09T10:53:58.506Z,101850.00
2023-08-09T10:56:45.462Z,101845.00
2023-08-09T10:59:15.670Z,101850.00
2023-08-09T11:01:43.176Z,101849.00
2023-08-09T11:04:15.853Z,101848.00
2023-08-09T11:06:44.081Z,101846.00
2023-08-09T11:09:20.469Z,101855.00
2023-08-09T11:11:51.613Z,101861.00
2023-08-09T11:14:20.453Z,101860.00
2023-08-09T11:16:47.989Z,101859.00
2023-08-09T11:19:32.785Z,101865.00
2023-08-09T11:22:03.126Z,101878.00
2023-08-09T11:24:34.791Z,101879.00
2023-08-09T11:27:01.389Z,101876.00
2023-08-09T11:29:31.258Z,101875.00
2023-08-09T11:31:59.773Z,101874.00
2023-08-09T11:34:27.291Z,101880.00
2023-08-09T11:36:56.070Z,101882.00
2023-08-09T11:39:27.919Z,101881.00
2023-08-09T11:41:57.590Z,101884.00
2023-08-09T11:44:30.732Z,101889.00
2023-08-09T11:46:59.035Z,101885.00
2023-08-09T11:49:36.794Z,101892.00
2023-08-09T11:52:04.516Z,101884.00
2023-08-09T11:54:33.900Z,101891.00
2023-08-09T11:57:00.971Z,101900.00
2023-08-09T11:59:30.681Z,101893.00
2023-08-09T12:01:58.767Z,101893.00
2023-08-09T12:04:30.553Z,101903.00
2023-08-09T12:06:57.853Z,101895.00
2023-08-09T12:09:41.927Z,101895.00
2023-08-09T12:12:15.585Z,101891.00
2023-08-09T12:14:47.348Z,101900.00
2023-08-09T12:17:26.092Z,101900.00
2023-08-09T12:20:08.272Z,101892.00
2023-08-09T12:22:35.129Z,101900.00
2023-08-09T12:25:05.094Z,101905.00
2023-08-09T12:27:34.039Z,101913.00
2023-08-09T12:30:00.813Z,101920.00
2023-08-09T12:32:27.839Z,101917.00
2023-08-09T12:34:56.932Z,101925.00
2023-08-09T12:37:26.292Z,101926.00
2023-08-09T12:39:53.033Z,101932.00
2023-08-09T12:42:19.742Z,101934.00
2023-08-09T12:44:46.484Z,101934.00
2023-08-09T12:47:15.374Z,101945.00
2023-08-09T12:49:44.357Z,101946.00
2023-08-09T12:52:13.543Z,101942.00
2023-08-09T12:54:42.679Z,101945.00
2023-08-09T12:57:09.481Z,101942.00
2023-08-09T12:59:36.101Z,101948.00
2023-08-09T13:02:05.660Z,101945.00
2023-08-09T13:04:32.670Z,101955.00
2023-08-09T13:06:59.847Z,101964.00
2023-08-09T13:09:28.785Z,101969.00
2023-08-09T13:12:09.924Z,101954.00
2023-08-09T13:14:37.844Z,101970.00
2023-08-09T13:17:10.011Z,101965.00
2023-08-09T13:19:37.964Z,101969.00
2023-08-09T13:22:05.025Z,101965.00
2023-08-09T13:24:32.091Z,101956.00
2023-08-09T13:26:58.800Z,101958.00
2023-08-09T13:29:25.436Z,101963.00
2023-08-09T13:31:53.416Z,101959.00
2023-08-09T13:34:20.169Z,101971.00
2023-08-09T13:36:49.198Z,101977.00
2023-08-09T13:39:15.925Z,101987.00
2023-08-09T13:41:42.551Z,101980.00
2023-08-09T13:44:09.265Z,101983.00
2023-08-09T13:46:36.045Z,101982.00
2023-08-09T13:49:07.320Z,101975.00
2023-08-09T13:51:33.923Z,101970.00
2023-08-09T13:54:03.127Z,101967.00
2023-08-09T13:56:30.036Z,101969.00
2023-08-09T13:58:56.722Z,101966.00
2023-08-09T14:01:23.849Z,101962.00
2023-08-09T14:03:51.517Z,101965.00
2023-08-09T14:06:18.585Z,101960.00
2023-08-09T14:08:50.148Z,101970.00
2023-08-09T14:11:19.025Z,101973.00
2023-08-09T14:13:45.716Z,101984.00
2023-08-09T14:16:12.458Z,101987.00
2023-08-09T14:18:40.226Z,101984.00
2023-08-09T14:21:10.268Z,101995.00
2023-08-09T14:23:40.292Z,101999.00
2023-08-09T14:26:07.374Z,102001.00
2023-08-09T14:28:36.456Z,102000.00
2023-08-09T14:31:03.434Z,102005.00
2023-08-09T14:33:30.566Z,101998.00
2023-08-09T14:35:59.990Z,101999.00
2023-08-09T14:38:26.762Z,102003.00
2023-08-09T14:40:55.442Z,102000.00
2023-08-09T14:43:24.552Z,102002.00
2023-08-09T14:45:51.223Z,102009.00
2023-08-09T14:48:20.227Z,102011.00
2023-08-09T14:50:46.994Z,102008.00
2023-08-09T14:53:18.366Z,102017.00
2023-08-09T14:55:49.522Z,102019.00
2023-08-09T14:58:17.117Z,102017.00
2023-08-09T15:00:44.018Z,102021.00
2023-08-09T15:03:13.801Z,102029.00
2023-08-09T15:05:40.712Z,102023.00
2023-08-09T15:08:09.868Z,102015.00
2023-08-09T15:10:38.771Z,102014.00
2023-08-09T15:13:09.204Z,102021.00
2023-08-09T15:15:38.384Z,102022.00
2023-08-09T15:18:05.705Z,102012.00
2023-08-09T15:20:33.043Z,102021.00
2023-08-09T15:22:59.728Z,102017.00
2023-08-09T15:25:28.627Z,102021.00
2023-08-09T15:27:56.007Z,102019.00
2023-08-09T15:30:25.455Z,102023.00
2023-08-09T15:32:52.601Z,102024.00
2023-08-09T15:35:20.271Z,102019.00
2023-08-09T15:37:51.333Z,102013.00
2023-08-09T15:40:18.781Z,102010.00
2023-08-09T15:42:47.920Z,102009.00
2023-08-09T15:45:14.602Z,102011.00
2023-08-09T15:47:45.393Z,102012.00
2023-08-09T15:50:21.084Z,102014.00
2023-08-09T15:52:51.291Z,102012.00
2023-08-09T15:55:18.023Z,102020.00
2023-08-09T15:57:44.655Z,102017.00
2023-08-09T16:00:13.242Z,102020.00
2023-08-09T16:02:40.026Z,102017.00
2023-08-09T16:05:13.100Z,102022.00
2023-08-09T16:07:40.414Z,102011.00
2023-08-09T16:10:07.863Z,102015.00
2023-08-09T16:12:34.490Z,102013.00
2023-08-09T16:15:01.373Z,102011.00
2023-08-09T16:17:28.243Z,102012.00
2023-08-09T16:19:59.262Z,101998.00
2023-08-09T16:22:26.888Z,102007.00
2023-08-09T16:24:55.858Z,102015.00
2023-08-09T16:27:22.612Z,102012.00
2023-08-09T16:29:49.302Z,102016.00
2023-08-09T16:32:18.417Z,102014.00
2023-08-09T16:34:45.117Z,102014.00
2023-08-09T16:37:12.148Z,102017.00
2023-08-09T16:39:41.842Z,102015.00
2023-08-09T16:42:14.006Z,102021.00
2023-08-09T16:44:40.784Z,102015.00
2023-08-09T16:47:07.471Z,102010.00
2023-08-09T16:49:34.161Z,102013.00
2023-08-09T16:52:03.926Z,102013.00
2023-08-09T16:54:30.881Z,102013.00
2023-08-09T16:56:59.752Z,102012.00
2023-08-09T16:59:26.437Z,102014.00
2023-08-09T17:01:55.278Z,102013.00
2023-08-09T17:04:26.307Z,102010.00
2023-08-09T17:06:53.186Z,102011.00
2023-08-09T17:09:19.820Z,102008.00
2023-08-09T17:11:48.891Z,102007.00
2023-08-09T17:14:15.520Z,102011.00
2023-08-09T17:16:44.453Z,102013.00
2023-08-09T17:19:11.233Z,102015.00
2023-08-09T17:21:37.889Z,102014.00
2023-08-09T17:24:04.726Z,102022.00
2023-08-09T17:26:33.861Z,102016.00
2023-08-09T17:29:00.676Z,102018.00
2023-08-09T17:31:29.864Z,102021.00
2023-08-09T17:33:58.763Z,102020.00
2023-08-09T17:36:27.946Z,102021.00
2023-08-09T17:38:54.643Z,102027.00
2023-08-09T17:41:21.477Z,102032.00
2023-08-09T17:43:51.151Z,102032.00
2023-08-09T17:46:22.627Z,102027.00
2023-08-09T17:48:50.338Z,102019.00
2023-08-09T17:51:20.869Z,102019.00
2023-08-09T17:53:47.613Z,102024.00
2023-08-09T17:56:14.285Z,102023.00
2023-08-09T17:58:41.189Z,102021.00
2023-08-09T18:01:07.944Z,102017.00
2023-08-09T18:03:34.674Z,102018.00
2023-08-09T18:06:01.847Z,102026.00
2023-08-09T18:08:31.004Z,102025.00
2023-08-09T18:10:59.894Z,102027.00
2023-08-09T18:13:29.078Z,102027.00
2023-08-09T18:15:58.262Z,102027.00
2023-08-09T18:18:25.012Z,102021.00
2023-08-09T18:20:51.664Z,102023.00
2023-08-09T18:23:18.306Z,102026.00
2023-08-09T18:25:44.996Z,102029.00
2023-08-09T18:28:13.989Z,102026.00
2023-08-09T18:30:43.126Z,102027.00
2023-08-09T18:33:10.085Z,102023.00
2023-08-09T18:35:39.569Z,102029.00
2023-08-09T18:38:06.523Z,102031.00
2023-08-09T18:40:35.368Z,102028.00
2023-08-09T18:43:02.178Z,102034.00
2023-08-09T18:45:29.059Z,102040.00
2023-08-09T18:47:58.081Z,102032.00
2023-08-09T18:50:24.789Z,102036.00
2023-08-09T18:52:54.662Z,102027.00
2023-08-09T18:55:21.380Z,102023.00
2023-08-09T18:57:48.547Z,102018.00
2023-08-09T19:00:21.121Z,102022.00
2023-08-09T19:02:50.318Z,102022.00
2023-08-09T19:05:17.293Z,102025.00
2023-08-09T19:07:44.425Z,102024.00
2023-08-09T19:10:11.864Z,102023.00
2023-08-09T19:12:39.501Z,102024.00
2023-08-09T19:15:09.614Z,102026.00
2023-08-09T19:17:38.781Z,102036.00
2023-08-09T19:20:08.747Z,102031.00
2023-08-09T19:22:35.401Z,102024.00
2023-08-09T19:25:04.859Z,102024.00
2023-08-09T19:27:32.031Z,102032.00
2023-08-09T19:30:04.298Z,102025.00
2023-08-09T19:32:33.236Z,102025.00
2023-08-09T19:35:02.319Z,102029.00
2023-08-09T19:37:28.995Z,102031.00
2023-08-09T19:39:55.988Z,102037.00
2023-08-09T19:42:22.970Z,102037.00
2023-08-09T19:44:54.173Z,102046.00
2023-08-09T19:47:20.826Z,102047.00
2023-08-09T19:49:49.533Z,102054.00
2023-08-09T19:52:21.099Z,102054.00
2023-08-09T19:54:47.738Z,102056.00
2023-08-09T19:57:17.220Z,102063.00
2023-08-09T19:59:46.867Z,102061.00
2023-08-09T20:02:16.073Z,102063.00
2023-08-09T20:04:43.017Z,102069.00
2023-08-09T20:07:09.778Z,102065.00
2023-08-09T20:09:36.568Z,102068.00
2023-08-09T20:12:05.058Z,102067.00
2023-08-09T20:14:34.010Z,102072.00
2023-08-09T20:17:00.766Z,102067.00
2023-08-09T20:19:27.802Z,102073.00
2023-08-09T20:21:54.528Z,102074.00
2023-08-09T20:24:39.666Z,102078.00
2023-08-09T20:27:07.041Z,102073.00
2023-08-09T20:29:36.567Z,102069.00
2023-08-09T20:32:04.146Z,102072.00
2023-08-09T20:34:34.078Z,102069.00
2023-08-09T20:37:01.113Z,102078.00
2023-08-09T20:39:28.556Z,102068.00
2023-08-09T20:41:55.211Z,102065.00
2023-08-09T20:44:21.958Z,102073.00
2023-08-09T20:46:48.728Z,102068.00
2023-08-09T20:49:15.383Z,102069.00
2023-08-09T20:51:42.327Z,102070.00
2023-08-09T20:54:09.238Z,102073.00
2023-08-09T20:56:35.966Z,102074.00
2023-08-09T20:59:05.331Z,102067.00
2023-08-09T21:01:34.673Z,102075.00
2023-08-09T21:04:04.300Z,102080.00
2023-08-09T21:06:30.994Z,102076.00
2023-08-09T21:08:57.682Z,102072.00
2023-08-09T21:11:24.421Z,102076.00
2023-08-09T21:13:51.068Z,102066.00
2023-08-09T21:16:17.793Z,102075.00
2023-08-09T21:18:47.634Z,102074.00
2023-08-09T21:21:16.419Z,102072.00
2023-08-09T21:26:20.187Z,102066.00
2023-08-09T21:28:48.120Z,102071.00
2023-08-09T21:31:15.798Z,102064.00
2023-08-09T21:33:42.583Z,102063.00
2023-08-09T21:36:09.536Z,102061.00
2023-08-09T21:38:41.737Z,102064.00
2023-08-09T21:41:08.580Z,102066.00
2023-08-09T21:43:37.735Z,102068.00
2023-08-09T21:46:04.519Z,102066.00
2023-08-09T21:48:31.244Z,102068.00
2023-08-09T21:51:03.662Z,102071.00
2023-08-09T21:53:30.438Z,102067.00
2023-08-09T21:56:02.894Z,102065.00
2023-08-09T21:58:29.686Z,102066.00
2023-08-09T22:00:58.630Z,102061.00
2023-08-09T22:03:27.916Z,102059.00
2023-08-09T22:05:54.791Z,102073.00
2023-08-09T22:08:21.586Z,102066.00
2023-08-09T22:10:48.970Z,102068.00
2023-08-09T22:13:18.751Z,102065.00
2023-08-09T22:15:48.272Z,102068.00
2023-08-09T22:18:17.469Z,102067.00
2023-08-09T22:20:47.551Z,102074.00
2023-08-09T22:23:16.418Z,102071.00
2023-08-09T22:25:43.095Z,102071.00
2023-08-09T22:28:13.456Z,102074.00
2023-08-09T22:30:45.508Z,102070.00
2023-08-09T22:33:12.305Z,102076.00
2023-08-09T22:35:41.394Z,102076.00
2023-08-09T22:38:08.141Z,102080.00
2023-08-09T22:40:39.265Z,102087.00
2023-08-09T22:43:06.395Z,102090.00
2023-08-09T22:45:33.191Z,102084.00
2023-08-09T22:48:03.656Z,102083.00
2023-08-09T22:50:30.509Z,102088.00
2023-08-09T22:52:59.658Z,102089.00
2023-08-09T22:55:26.480Z,102088.00
2023-08-09T22:57:53.197Z,102097.00
2023-08-09T23:00:20.839Z,102091.00
2023-08-09T23:02:47.517Z,102094.00
2023-08-09T23:05:14.609Z,102102.00
2023-08-09T23:07:41.426Z,102097.00
2023-08-09T23:10:08.613Z,102095.00
2023-08-09T23:12:36.843Z,102093.00
2023-08-09T23:15:08.625Z,102093.00
2023-08-09T23:17:35.400Z,102095.00
2023-08-09T23:20:02.063Z,102101.00
2023-08-09T23:22:28.830Z,102097.00
2023-08-09T23:24:55.844Z,102103.00
2023-08-09T23:27:24.172Z,102100.00
2023-08-09T23:29:50.876Z,102104.00
2023-08-09T23:32:17.573Z,102110.00
2023-08-09T23:34:48.159Z,102103.00
2023-08-09T23:37:15.208Z,102112.00
2023-08-09T23:39:42.979Z,102114.00
2023-08-09T23:42:10.309Z,102115.00
2023-08-09T23:44:37.703Z,102112.00
2023-08-09T23:47:04.553Z,102118.00
2023-08-09T23:49:31.294Z,102125.00
2023-08-09T23:51:57.892Z,102121.00
2023-08-09T23:54:24.611Z,102112.00
2023-08-09T23:56:51.281Z,102117.00
2023-08-09T23:59:18.287Z,102121.00
